createdAt,value
2022-11-02T00:03:42.388Z,3.97
2022-11-02T00:08:45.395Z,3.85
2022-11-02T00:13:49.469Z,3.70
2022-11-02T00:18:53.928Z,3.35
2022-11-02T00:23:57.433Z,3.38
2022-11-02T00:29:01.543Z,3.65
2022-11-02T00:34:04.285Z,3.53
2022-11-02T00:39:06.917Z,3.03
2022-11-02T00:44:11.050Z,3.22
2022-11-02T00:49:13.933Z,3.15
2022-11-02T00:54:16.834Z,3.25
2022-11-02T00:59:21.336Z,3.22
2022-11-02T01:04:24.048Z,3.10
2022-11-02T01:09:27.752Z,2.97
2022-11-02T01:14:32.191Z,3.10
2022-11-02T01:19:34.866Z,2.80
2022-11-02T01:24:37.608Z,2.88
2022-11-02T01:29:41.641Z,2.60
2022-11-02T01:34:44.305Z,2.85
2022-11-02T01:39:47.106Z,2.70
2022-11-02T01:44:51.161Z,2.85
2022-11-02T01:49:57.083Z,2.92
2022-11-02T01:55:04.483Z,2.70
2022-11-02T02:00:11.725Z,2.30
2022-11-02T02:05:17.626Z,2.60
2022-11-02T02:10:20.488Z,2.72
2022-11-02T02:15:28.105Z,2.58
2022-11-02T02:20:46.745Z,2.30
2022-11-02T02:25:59.554Z,2.50
2022-11-02T02:31:14.022Z,2.22
2022-11-02T02:36:21.558Z,2.70
2022-11-02T02:41:28.078Z,2.30
2022-11-02T02:46:37.149Z,2.22
2022-11-02T02:51:41.303Z,2.28
2022-11-02T02:56:50.566Z,2.15
2022-11-02T03:01:57.009Z,2.45
2022-11-02T03:07:01.763Z,1.95
2022-11-02T03:12:16.899Z,2.10
2022-11-02T03:17:26.973Z,2.35
2022-11-02T03:22:32.863Z,2.15
2022-11-02T03:27:40.516Z,2.45
2022-11-02T03:32:50.987Z,2.20
2022-11-02T03:37:56.855Z,2.25
2022-11-02T03:43:01.285Z,1.95
2022-11-02T03:48:08.383Z,2.20
2022-11-02T03:53:13.756Z,2.20
2022-11-02T03:58:16.760Z,2.05
2022-11-02T04:03:24.117Z,2.22
2022-11-02T04:08:31.085Z,2.20
2022-11-02T04:13:55.596Z,2.28
2022-11-02T04:19:19.013Z,2.00
2022-11-02T04:24:40.022Z,2.20
2022-11-02T04:29:43.589Z,2.10
2022-11-02T04:34:47.635Z,2.10
2022-11-02T04:39:50.414Z,2.10
2022-11-02T04:44:53.522Z,1.90
2022-11-02T04:50:00.789Z,1.88
2022-11-02T04:55:04.851Z,1.90
2022-11-02T05:00:09.658Z,2.00
2022-11-02T05:05:14.834Z,2.22
2022-11-02T05:10:18.572Z,1.90
2022-11-02T05:15:23.191Z,2.10
2022-11-02T05:20:27.453Z,2.03
2022-11-02T05:25:30.477Z,1.92
2022-11-02T05:30:34.090Z,1.85
2022-11-02T05:35:38.282Z,2.10
2022-11-02T05:40:41.679Z,2.22
2022-11-02T05:45:52.852Z,1.92
2022-11-02T05:51:01.155Z,1.95
2022-11-02T05:56:05.969Z,1.77
2022-11-02T06:01:09.662Z,1.90
2022-11-02T06:06:13.738Z,2.05
2022-11-02T06:11:17.329Z,2.05
2022-11-02T06:16:23.109Z,2.00
2022-11-02T06:21:27.584Z,2.10
2022-11-02T06:26:30.246Z,1.85
2022-11-02T06:31:32.927Z,2.13
2022-11-02T06:36:37.042Z,2.00
2022-11-02T06:41:39.683Z,1.90
2022-11-02T06:46:42.347Z,2.00
2022-11-02T06:51:46.398Z,1.90
2022-11-02T06:56:49.035Z,1.60
2022-11-02T07:01:54.261Z,2.10
2022-11-02T07:06:58.441Z,1.92
2022-11-02T07:12:01.083Z,1.98
2022-11-02T07:17:03.772Z,1.60
2022-11-02T07:22:07.782Z,2.10
2022-11-02T07:27:10.422Z,1.83
2022-11-02T07:32:13.465Z,2.15
2022-11-02T07:37:17.552Z,2.25
2022-11-02T07:42:20.303Z,1.92
2022-11-02T07:47:25.797Z,2.17
2022-11-02T07:52:29.865Z,2.05
2022-11-02T07:57:32.513Z,1.90
2022-11-02T08:02:35.210Z,1.90
2022-11-02T08:07:39.286Z,2.03
2022-11-02T08:12:41.929Z,2.05
2022-11-02T08:17:44.640Z,2.00
2022-11-02T08:22:48.736Z,2.08
2022-11-02T08:27:51.398Z,1.90
2022-11-02T08:32:57.027Z,2.15
2022-11-02T08:38:01.676Z,1.80
2022-11-02T08:43:06.125Z,1.80
2022-11-02T08:48:09.168Z,1.70
2022-11-02T08:53:13.173Z,2.00
2022-11-02T08:58:15.873Z,1.70
2022-11-02T09:03:25.038Z,1.70
2022-11-02T09:08:30.883Z,1.77
2022-11-02T09:13:33.672Z,1.80
2022-11-02T09:18:36.356Z,1.77
2022-11-02T09:23:40.405Z,1.80
2022-11-02T09:28:43.198Z,1.58
2022-11-02T09:33:46.220Z,1.83
2022-11-02T09:38:50.369Z,1.70
2022-11-02T09:43:59.263Z,1.80
2022-11-02T09:49:04.754Z,1.60
2022-11-02T09:54:17.429Z,1.60
2022-11-02T09:59:21.896Z,1.50
2022-11-02T10:04:57.719Z,1.77
2022-11-02T10:10:05.068Z,1.73
2022-11-02T10:15:13.491Z,1.80
2022-11-02T10:20:21.935Z,1.58
2022-11-02T10:25:26.073Z,1.42
2022-11-02T10:30:29.177Z,1.60
2022-11-02T10:35:51.409Z,1.45
2022-11-02T10:41:10.657Z,1.55
2022-11-02T10:46:22.894Z,1.60
2022-11-02T10:51:25.938Z,1.50
2022-11-02T10:56:32.833Z,1.70
2022-11-02T11:01:35.637Z,1.80
2022-11-02T11:06:40.208Z,1.55
2022-11-02T11:11:54.142Z,1.75
2022-11-02T11:22:26.873Z,1.60
2022-11-02T11:27:30.986Z,2.75
2022-11-02T11:32:35.242Z,8.40
2022-11-02T11:37:38.396Z,10.77
2022-11-02T11:42:43.604Z,12.52
2022-11-02T11:47:46.384Z,14.35
2022-11-02T11:52:50.746Z,14.60
2022-11-02T11:58:08.378Z,14.02
2022-11-02T12:03:13.066Z,12.00
2022-11-02T12:08:36.091Z,11.55
2022-11-02T12:13:59.026Z,10.57
2022-11-02T12:19:13.872Z,10.70
2022-11-02T12:24:38.511Z,9.23
2022-11-02T12:30:02.745Z,9.20
2022-11-02T12:35:28.881Z,9.10
2022-11-02T12:40:45.298Z,8.57
2022-11-02T12:45:55.566Z,8.43
2022-11-02T12:51:00.829Z,7.50
2022-11-02T12:56:05.521Z,7.15
2022-11-02T13:01:13.983Z,6.63
2022-11-02T13:06:23.083Z,6.10
2022-11-02T13:11:30.773Z,6.00
2022-11-02T13:16:39.795Z,5.85
2022-11-02T13:21:46.006Z,5.90
2022-11-02T13:26:57.087Z,5.25
2022-11-02T13:32:09.905Z,5.00
2022-11-02T13:37:16.094Z,4.47
2022-11-02T13:42:27.903Z,4.80
2022-11-02T13:48:05.736Z,4.60
2022-11-02T13:53:09.987Z,4.30
2022-11-02T13:58:22.662Z,5.22
2022-11-02T14:03:29.281Z,4.95
2022-11-02T14:08:35.511Z,4.88
2022-11-02T14:14:19.671Z,4.53
2022-11-02T14:19:25.909Z,4.10
2022-11-02T14:24:56.915Z,4.20
2022-11-02T14:29:59.715Z,4.13
2022-11-02T14:35:34.348Z,3.85
2022-11-02T14:40:44.619Z,4.25
2022-11-02T14:46:06.575Z,3.80
2022-11-02T14:51:17.731Z,3.67
2022-11-02T14:56:20.364Z,3.28
2022-11-02T15:01:23.409Z,4.20
2022-11-02T15:06:31.716Z,3.22
2022-11-02T15:11:51.332Z,3.15
2022-11-02T15:16:54.219Z,3.25
2022-11-02T15:22:32.450Z,2.95
2022-11-02T15:27:36.009Z,3.17
2022-11-02T15:32:41.005Z,3.00
2022-11-02T15:38:11.374Z,2.80
2022-11-02T15:43:13.003Z,3.05
2022-11-02T15:48:26.941Z,2.65
2022-11-02T15:53:46.473Z,2.78
2022-11-02T15:59:04.326Z,2.70
2022-11-02T16:04:08.081Z,2.50
2022-11-02T16:14:40.119Z,2.33
2022-11-02T16:19:42.792Z,2.00
2022-11-02T16:24:47.574Z,2.33
2022-11-02T16:29:52.013Z,2.40
2022-11-02T16:34:54.755Z,2.40
2022-11-02T16:39:57.559Z,2.17
2022-11-02T16:45:04.109Z,2.25
2022-11-02T16:50:20.022Z,2.30
2022-11-02T16:55:40.779Z,2.10
2022-11-02T17:00:58.234Z,1.90
2022-11-02T17:06:03.359Z,2.10
2022-11-02T17:11:07.480Z,1.90
2022-11-02T17:16:12.491Z,1.95
2022-11-02T17:21:36.032Z,1.80
2022-11-02T17:26:38.737Z,1.90
2022-11-02T17:31:43.729Z,1.90
2022-11-02T17:36:48.913Z,1.77
2022-11-02T17:42:12.427Z,1.83
2022-11-02T17:47:18.656Z,1.67
2022-11-02T17:52:21.434Z,3.22
2022-11-02T17:57:24.122Z,2.88
2022-11-02T18:02:28.208Z,3.20
2022-11-02T18:07:30.896Z,3.53
2022-11-02T18:12:33.600Z,3.00
2022-11-02T18:17:37.678Z,3.00
2022-11-02T18:22:40.550Z,3.00
2022-11-02T18:27:43.634Z,2.72
2022-11-02T18:32:47.854Z,2.92
2022-11-02T18:37:51.159Z,2.55
2022-11-02T18:42:53.908Z,2.40
2022-11-02T18:47:57.999Z,2.63
2022-11-02T18:53:00.697Z,2.42
2022-11-02T18:58:03.702Z,2.40
2022-11-02T19:03:08.105Z,2.40
2022-11-02T19:08:28.448Z,2.08
2022-11-02T19:13:31.193Z,2.15
2022-11-02T19:18:35.429Z,2.60
2022-11-02T19:23:38.165Z,2.00
2022-11-02T19:28:40.834Z,2.00
2022-11-02T19:33:45.023Z,2.50
2022-11-02T19:38:47.790Z,2.30
2022-11-02T19:43:50.569Z,2.50
2022-11-02T19:48:54.942Z,2.00
2022-11-02T19:53:59.229Z,2.85
2022-11-02T19:59:02.347Z,2.20
2022-11-02T20:04:06.648Z,2.42
2022-11-02T20:09:15.011Z,2.40
2022-11-02T20:14:18.602Z,2.38
2022-11-02T20:19:22.604Z,2.28
2022-11-02T20:24:25.282Z,2.67
2022-11-02T20:29:27.981Z,2.45
2022-11-02T20:34:32.013Z,2.30
2022-11-02T20:39:34.647Z,2.10
2022-11-02T20:44:37.438Z,2.40
2022-11-02T20:49:50.536Z,2.10
2022-11-02T20:54:53.982Z,2.40
2022-11-02T20:59:56.665Z,2.83
2022-11-02T21:05:00.727Z,2.20
2022-11-02T21:10:03.451Z,2.20
2022-11-02T21:15:07.338Z,2.17
2022-11-02T21:20:32.608Z,1.98
2022-11-02T21:25:36.324Z,2.25
2022-11-02T21:30:39.034Z,2.15
2022-11-02T21:35:43.101Z,2.42
2022-11-02T21:40:45.749Z,2.08
2022-11-02T21:45:52.840Z,2.17
2022-11-02T21:51:05.871Z,1.90
2022-11-02T21:56:10.045Z,2.20
2022-11-02T22:01:32.058Z,1.95
2022-11-02T22:06:37.487Z,2.15
2022-11-02T22:11:40.685Z,2.58
2022-11-02T22:16:44.433Z,2.00
2022-11-02T22:21:49.412Z,1.90
2022-11-02T22:26:52.233Z,1.98
2022-11-02T22:31:55.044Z,2.17
2022-11-02T22:37:19.077Z,1.85
2022-11-02T22:42:21.786Z,2.17
2022-11-02T22:47:24.491Z,2.20
2022-11-02T22:52:28.483Z,2.10
2022-11-02T22:57:31.187Z,2.00
2022-11-02T23:02:33.867Z,1.90
2022-11-02T23:07:37.971Z,1.90
2022-11-02T23:12:40.735Z,1.95
2022-11-02T23:17:43.416Z,2.55
2022-11-02T23:23:05.087Z,2.00
2022-11-02T23:33:34.153Z,2.25
2022-11-02T23:38:55.770Z,1.90
2022-11-02T23:44:12.756Z,2.08
2022-11-02T23:49:17.311Z,1.95
2022-11-02T23:54:39.012Z,1.77
2022-11-02T23:59:41.731Z,1.92
